createdAt,value
2019-03-01T00:01:24.954Z,86.96
2019-03-01T00:04:02.526Z,86.72
2019-03-01T00:06:46.570Z,86.11
2019-03-01T00:09:53.229Z,85.93
2019-03-01T00:12:52.960Z,86.92
2019-03-01T00:15:56.604Z,86.89
2019-03-01T00:19:10.195Z,86.35
2019-03-01T00:22:11.950Z,86.46
2019-03-01T00:25:04.821Z,86.02
2019-03-01T00:28:25.363Z,86.29
2019-03-01T00:31:36.481Z,86.70
2019-03-01T00:34:47.101Z,86.11
2019-03-01T00:38:16.582Z,86.14
2019-03-01T00:41:24.869Z,86.33
2019-03-01T00:44:31.145Z,85.29
2019-03-01T00:47:01.582Z,85.25
2019-03-01T00:49:33.054Z,86.14
2019-03-01T00:52:03.546Z,86.29
2019-03-01T00:54:34.994Z,86.86
2019-03-01T00:57:06.772Z,87.15
2019-03-01T00:59:37.579Z,87.18
2019-03-01T01:02:08.485Z,85.44
2019-03-01T01:04:39.001Z,86.83
2019-03-01T01:07:10.181Z,86.00
2019-03-01T01:09:40.625Z,87.85
2019-03-01T01:12:11.401Z,87.47
2019-03-01T01:14:41.908Z,87.55
2019-03-01T01:17:12.349Z,87.19
2019-03-01T01:19:43.574Z,87.39
2019-03-01T01:22:14.455Z,87.47
2019-03-01T01:24:44.889Z,86.85
2019-03-01T01:27:15.324Z,87.11
2019-03-01T01:29:45.828Z,87.51
2019-03-01T01:32:16.280Z,86.65
2019-03-01T01:34:46.713Z,87.67
2019-03-01T01:37:17.545Z,87.28
2019-03-01T01:39:48.022Z,87.13
2019-03-01T01:42:18.468Z,86.63
2019-03-01T01:44:48.954Z,87.27
2019-03-01T01:47:19.405Z,87.20
2019-03-01T01:49:50.167Z,87.16
2019-03-01T01:52:20.838Z,86.45
2019-03-01T01:54:51.451Z,87.20
2019-03-01T01:57:21.887Z,87.13
2019-03-01T01:59:52.371Z,87.09
2019-03-01T02:02:22.925Z,86.91
2019-03-01T02:04:53.383Z,86.80
2019-03-01T02:07:24.199Z,86.42
2019-03-01T02:09:59.165Z,86.90
2019-03-01T02:12:29.825Z,86.51
2019-03-01T02:15:00.331Z,85.94
2019-03-01T02:17:30.792Z,86.96
2019-03-01T02:20:01.270Z,86.78
2019-03-01T02:22:32.030Z,86.72
2019-03-01T02:25:02.478Z,86.65
2019-03-01T02:27:33.914Z,86.14
2019-03-01T02:30:07.320Z,86.28
2019-03-01T02:32:46.940Z,87.17
2019-03-01T02:35:35.697Z,86.24
2019-03-01T02:38:06.183Z,86.61
2019-03-01T02:40:37.237Z,87.93
2019-03-01T02:43:07.836Z,87.85
2019-03-01T02:45:38.318Z,87.05
2019-03-01T02:48:08.758Z,87.20
2019-03-01T02:50:39.196Z,87.22
2019-03-01T02:53:10.000Z,87.90
2019-03-01T02:55:41.145Z,87.81
2019-03-01T02:58:12.023Z,88.01
2019-03-01T03:00:42.502Z,88.47
2019-03-01T03:03:13.207Z,87.29
2019-03-01T03:05:59.690Z,87.94
2019-03-01T03:08:30.135Z,88.40
2019-03-01T03:11:00.577Z,88.24
2019-03-01T03:13:32.018Z,88.38
2019-03-01T03:16:02.704Z,88.43
2019-03-01T03:18:34.501Z,88.47
2019-03-01T03:21:05.372Z,88.88
2019-03-01T03:23:35.819Z,88.24
2019-03-01T03:26:06.262Z,88.61
2019-03-01T03:28:37.754Z,88.20
2019-03-01T03:31:08.201Z,88.09
2019-03-01T03:33:38.651Z,88.10
2019-03-01T03:36:09.147Z,89.30
2019-03-01T03:38:39.591Z,89.75
2019-03-01T03:41:10.946Z,88.81
2019-03-01T03:43:41.702Z,89.15
2019-03-01T03:46:12.413Z,89.23
2019-03-01T03:48:43.813Z,88.83
2019-03-01T03:51:14.306Z,89.53
2019-03-01T03:53:44.748Z,88.64
2019-03-01T03:56:15.259Z,88.26
2019-03-01T03:58:45.763Z,87.47
2019-03-01T04:01:16.195Z,87.33
2019-03-01T04:03:47.643Z,87.64
2019-03-01T04:06:18.142Z,87.97
2019-03-01T04:08:49.025Z,88.64
2019-03-01T04:11:19.647Z,88.47
2019-03-01T04:13:50.140Z,88.25
2019-03-01T04:16:21.243Z,87.82
2019-03-01T04:18:52.588Z,86.71
2019-03-01T04:21:23.175Z,87.17
2019-03-01T04:23:53.612Z,87.51
2019-03-01T04:26:24.045Z,87.68
2019-03-01T04:28:54.540Z,87.86
2019-03-01T04:31:25.384Z,86.92
2019-03-01T04:33:55.846Z,87.97
2019-03-01T04:36:26.338Z,88.32
2019-03-01T04:38:56.776Z,88.34
2019-03-01T04:41:27.610Z,87.68
2019-03-01T04:43:58.430Z,87.55
2019-03-01T04:46:28.870Z,88.41
2019-03-01T04:48:59.650Z,88.24
2019-03-01T04:51:30.808Z,88.51
2019-03-01T04:54:02.663Z,88.49
2019-03-01T04:56:33.175Z,88.13
2019-03-01T04:59:04.033Z,88.01
2019-03-01T05:01:34.546Z,87.58
2019-03-01T05:04:04.985Z,88.09
2019-03-01T05:06:35.834Z,88.04
2019-03-01T05:09:07.790Z,88.51
2019-03-01T05:11:38.567Z,88.94
2019-03-01T05:14:09.057Z,88.88
2019-03-01T05:16:39.497Z,88.28
2019-03-01T05:19:09.938Z,89.15
2019-03-01T05:21:41.209Z,89.12
2019-03-01T05:24:11.644Z,89.29
2019-03-01T05:26:42.086Z,89.62
2019-03-01T05:29:12.999Z,89.86
2019-03-01T05:31:43.814Z,89.75
2019-03-01T05:34:14.257Z,89.41
2019-03-01T05:36:44.781Z,89.41
2019-03-01T05:39:15.195Z,89.29
2019-03-01T05:41:45.629Z,90.44
2019-03-01T05:44:16.473Z,90.18
2019-03-01T05:46:46.920Z,90.85
2019-03-01T05:49:18.258Z,90.13
2019-03-01T05:51:49.124Z,90.39
2019-03-01T05:54:19.574Z,90.64
2019-03-01T05:56:50.353Z,90.22
2019-03-01T05:59:23.322Z,91.14
2019-03-01T06:02:25.669Z,90.52
2019-03-01T06:04:59.591Z,91.35
2019-03-01T06:08:35.134Z,91.63
2019-03-01T06:11:44.407Z,91.43
2019-03-01T06:15:17.101Z,91.85
2019-03-01T06:18:01.846Z,91.81
2019-03-01T06:20:43.402Z,91.63
2019-03-01T06:23:31.745Z,92.04
2019-03-01T06:26:49.216Z,92.06
2019-03-01T06:29:58.390Z,91.82
2019-03-01T06:32:57.098Z,91.38
2019-03-01T06:35:59.607Z,91.99
2019-03-01T06:39:19.473Z,92.13
2019-03-01T06:42:31.738Z,91.89
2019-03-01T06:45:40.100Z,91.20
2019-03-01T06:48:14.134Z,91.31
2019-03-01T06:50:49.478Z,91.97
2019-03-01T06:53:19.972Z,91.22
2019-03-01T06:55:56.258Z,90.73
2019-03-01T06:58:53.791Z,91.42
2019-03-01T07:01:29.582Z,91.74
2019-03-01T07:04:08.760Z,91.75
2019-03-01T07:06:39.253Z,91.98
2019-03-01T07:09:09.715Z,92.44
2019-03-01T07:11:40.554Z,91.82
2019-03-01T07:14:11.381Z,91.39
2019-03-01T07:16:42.150Z,92.12
2019-03-01T07:19:12.645Z,91.87
2019-03-01T07:21:43.082Z,91.49
2019-03-01T07:24:13.611Z,91.06
2019-03-01T07:26:44.272Z,92.04
2019-03-01T07:29:15.687Z,91.27
2019-03-01T07:31:46.154Z,92.38
2019-03-01T07:34:16.602Z,91.60
2019-03-01T07:36:47.622Z,91.33
2019-03-01T07:39:18.081Z,91.80
2019-03-01T07:41:49.576Z,91.87
2019-03-01T07:44:20.234Z,91.57
2019-03-01T07:46:53.237Z,91.77
2019-03-01T07:49:23.226Z,91.93
2019-03-01T07:51:53.670Z,92.08
2019-03-01T07:54:25.129Z,92.40
2019-03-01T07:56:55.542Z,92.26
2019-03-01T07:59:26.363Z,92.53
2019-03-01T08:01:56.810Z,92.76
2019-03-01T08:04:29.543Z,92.52
2019-03-01T08:06:59.796Z,92.19
2019-03-01T08:09:30.238Z,92.79
2019-03-01T08:12:03.673Z,92.66
2019-03-01T08:14:33.575Z,92.36
2019-03-01T08:17:04.010Z,92.96
2019-03-01T08:19:34.485Z,93.84
2019-03-01T08:22:05.452Z,93.54
2019-03-01T08:24:36.301Z,93.97
2019-03-01T08:27:09.929Z,94.53
2019-03-01T08:29:40.581Z,94.20
2019-03-01T08:32:11.123Z,94.25
2019-03-01T08:34:44.341Z,93.98
2019-03-01T08:37:17.636Z,93.57
2019-03-01T08:39:46.951Z,93.89
2019-03-01T08:42:17.394Z,93.93
2019-03-01T08:44:47.879Z,94.05
2019-03-01T08:47:23.545Z,93.57
2019-03-01T08:49:50.465Z,94.40
2019-03-01T08:52:21.046Z,93.85
2019-03-01T08:54:51.494Z,94.45
2019-03-01T08:57:22.699Z,94.39
2019-03-01T08:59:54.449Z,94.08
2019-03-01T09:02:24.937Z,94.26
2019-03-01T09:04:55.413Z,94.55
2019-03-01T09:07:27.145Z,94.05
2019-03-01T09:09:58.083Z,93.70
2019-03-01T09:12:28.722Z,92.95
2019-03-01T09:14:59.366Z,94.02
2019-03-01T09:17:30.245Z,93.08
2019-03-01T09:20:01.174Z,94.03
2019-03-01T09:22:33.694Z,93.77
2019-03-01T09:25:07.486Z,93.67
2019-03-01T09:27:37.359Z,93.46
2019-03-01T09:30:11.543Z,93.70
2019-03-01T09:32:41.993Z,93.85
2019-03-01T09:35:44.553Z,93.55
2019-03-01T09:38:15.025Z,92.26
2019-03-01T09:40:45.911Z,93.45
2019-03-01T09:43:17.042Z,92.50
2019-03-01T09:45:48.760Z,92.75
2019-03-01T09:48:19.647Z,91.80
2019-03-01T09:50:50.388Z,92.46
2019-03-01T09:53:20.854Z,92.50
2019-03-01T09:55:51.298Z,92.23
2019-03-01T09:58:21.868Z,91.77
2019-03-01T10:00:56.853Z,91.94
2019-03-01T10:03:27.307Z,92.41
2019-03-01T10:05:58.195Z,92.34
2019-03-01T10:08:28.635Z,92.23
2019-03-01T10:10:59.518Z,91.59
2019-03-01T10:13:30.487Z,91.75
2019-03-01T10:16:01.125Z,92.22
2019-03-01T10:18:31.591Z,92.73
2019-03-01T10:21:02.030Z,92.86
2019-03-01T10:23:32.514Z,92.66
2019-03-01T10:26:02.956Z,92.20
2019-03-01T10:28:33.396Z,91.95
2019-03-01T10:31:04.209Z,92.27
2019-03-01T10:33:34.652Z,92.11
2019-03-01T10:36:06.527Z,91.53
2019-03-01T10:38:37.340Z,91.85
2019-03-01T10:41:08.175Z,91.54
2019-03-01T10:43:38.692Z,91.22
2019-03-01T10:46:09.160Z,91.33
2019-03-01T10:48:39.595Z,91.39
2019-03-01T10:51:10.093Z,91.29
2019-03-01T10:53:40.842Z,90.97
2019-03-01T10:56:11.277Z,91.16
2019-03-01T10:58:41.746Z,91.46
2019-03-01T11:01:12.288Z,91.48
2019-03-01T11:03:43.197Z,92.03
2019-03-01T11:06:13.637Z,91.85
2019-03-01T11:08:44.137Z,91.23
2019-03-01T11:11:14.589Z,91.31
2019-03-01T11:13:45.057Z,91.28
2019-03-01T11:16:15.550Z,91.04
2019-03-01T11:18:45.985Z,91.14
2019-03-01T11:21:16.425Z,91.28
2019-03-01T11:23:46.909Z,91.15
2019-03-01T11:26:17.353Z,91.38
2019-03-01T11:28:47.795Z,91.94
2019-03-01T11:31:18.263Z,91.46
2019-03-01T11:33:49.184Z,91.80
2019-03-01T11:36:19.668Z,91.33
2019-03-01T11:38:50.101Z,91.80
2019-03-01T11:41:20.590Z,91.58
2019-03-01T11:43:51.038Z,90.96
2019-03-01T11:46:21.904Z,91.37
2019-03-01T11:48:52.536Z,91.25
2019-03-01T11:51:23.552Z,91.25
2019-03-01T11:53:54.023Z,91.30
2019-03-01T11:56:24.479Z,91.40
2019-03-01T11:58:55.008Z,91.45
2019-03-01T12:01:25.467Z,91.61
2019-03-01T12:03:55.915Z,91.53
2019-03-01T12:06:26.386Z,90.20
2019-03-01T12:08:56.864Z,90.86
2019-03-01T12:11:27.710Z,91.33
2019-03-01T12:13:58.237Z,90.78
2019-03-01T12:16:28.695Z,90.63
2019-03-01T12:18:59.133Z,90.28
2019-03-01T12:21:29.606Z,89.42
2019-03-01T12:24:00.046Z,89.18
2019-03-01T12:26:30.529Z,88.86
2019-03-01T12:29:01.001Z,88.25
2019-03-01T12:31:31.450Z,88.36
2019-03-01T12:34:02.742Z,88.84
2019-03-01T12:36:33.181Z,89.54
2019-03-01T12:39:05.549Z,89.86
2019-03-01T12:41:36.439Z,90.04
2019-03-01T12:44:07.217Z,90.21
2019-03-01T12:46:37.686Z,89.65
2019-03-01T12:49:08.902Z,89.76
2019-03-01T12:51:39.378Z,89.46
2019-03-01T12:54:09.893Z,89.15
2019-03-01T12:56:40.377Z,89.84
2019-03-01T12:59:10.830Z,89.73
2019-03-01T13:01:41.837Z,89.79
2019-03-01T13:04:15.675Z,88.63
2019-03-01T13:06:45.290Z,88.60
2019-03-01T13:09:17.446Z,88.01
2019-03-01T13:11:48.673Z,88.13
2019-03-01T13:14:20.461Z,88.46
2019-03-01T13:16:50.962Z,88.41
2019-03-01T13:19:23.306Z,88.68
2019-03-01T13:21:53.592Z,88.68
2019-03-01T13:24:24.148Z,88.77
2019-03-01T13:26:55.721Z,88.55
2019-03-01T13:29:26.153Z,88.54
2019-03-01T13:31:56.638Z,89.29
2019-03-01T13:34:27.082Z,88.92
2019-03-01T13:36:57.578Z,88.64
2019-03-01T13:39:28.749Z,88.75
2019-03-01T13:41:59.219Z,88.75
2019-03-01T13:44:29.713Z,88.83
2019-03-01T13:47:00.177Z,88.49
2019-03-01T13:49:31.391Z,88.70
2019-03-01T13:52:02.258Z,88.23
2019-03-01T13:54:33.265Z,87.49
2019-03-01T13:57:03.850Z,86.58
2019-03-01T13:59:37.556Z,86.03
2019-03-01T14:02:07.543Z,85.99
2019-03-01T14:04:40.408Z,86.13
2019-03-01T14:07:11.094Z,85.98
2019-03-01T14:09:41.573Z,86.45
2019-03-01T14:12:12.023Z,86.20
2019-03-01T14:14:42.581Z,86.25
2019-03-01T14:17:13.088Z,86.52
2019-03-01T14:19:43.805Z,85.64
2019-03-01T14:22:14.282Z,85.69
2019-03-01T14:24:45.119Z,85.57
2019-03-01T14:27:15.596Z,85.73
2019-03-01T14:29:52.387Z,85.77
2019-03-01T14:32:21.734Z,85.73
2019-03-01T14:34:50.937Z,85.84
2019-03-01T14:37:21.922Z,86.49
2019-03-01T14:39:53.305Z,85.84
2019-03-01T14:42:24.355Z,85.93
2019-03-01T14:44:55.616Z,85.66
2019-03-01T14:47:29.060Z,85.98
2019-03-01T14:49:58.754Z,86.21
2019-03-01T14:52:29.170Z,85.98
2019-03-01T14:54:59.614Z,86.13
2019-03-01T14:57:33.298Z,85.86
2019-03-01T15:00:17.007Z,85.71
2019-03-01T15:03:01.753Z,85.99
2019-03-01T15:05:32.386Z,85.72
2019-03-01T15:08:03.193Z,86.48
2019-03-01T15:10:35.650Z,86.40
2019-03-01T15:13:06.244Z,86.44
2019-03-01T15:15:38.230Z,86.15
2019-03-01T15:18:11.262Z,86.13
2019-03-01T15:20:42.059Z,85.15
2019-03-01T15:23:12.630Z,85.18
2019-03-01T15:25:47.511Z,85.13
2019-03-01T15:28:16.668Z,85.28
2019-03-01T15:30:47.554Z,85.23
2019-03-01T15:33:18.402Z,84.71
2019-03-01T15:35:48.870Z,84.34
2019-03-01T15:38:19.314Z,84.00
2019-03-01T15:40:49.784Z,84.10
2019-03-01T15:43:20.335Z,83.87
2019-03-01T15:45:51.203Z,82.93
2019-03-01T15:48:21.640Z,83.02
2019-03-01T15:50:52.276Z,82.17
2019-03-01T15:53:24.958Z,81.47
2019-03-01T15:55:56.186Z,81.44
2019-03-01T15:58:29.282Z,80.41
2019-03-01T16:01:01.004Z,81.21
2019-03-01T16:03:31.609Z,80.70
2019-03-01T16:06:02.051Z,79.54
2019-03-01T16:08:32.561Z,79.93
2019-03-01T16:11:03.010Z,80.07
2019-03-01T16:13:33.532Z,79.08
2019-03-01T16:16:04.062Z,79.46
2019-03-01T16:18:35.397Z,79.09
2019-03-01T16:21:06.649Z,78.23
2019-03-01T16:23:37.148Z,77.56
2019-03-01T16:26:08.487Z,77.05
2019-03-01T16:28:38.972Z,76.10
2019-03-01T16:31:09.421Z,76.29
2019-03-01T16:33:39.884Z,76.56
2019-03-01T16:36:23.376Z,75.50
2019-03-01T16:38:53.900Z,75.58
2019-03-01T16:41:24.336Z,75.45
2019-03-01T16:43:54.828Z,75.37
2019-03-01T16:46:28.529Z,75.33
2019-03-01T16:48:57.854Z,75.31
2019-03-01T16:51:28.314Z,76.05
2019-03-01T16:53:59.186Z,77.03
2019-03-01T16:56:29.633Z,77.68
2019-03-01T16:59:03.235Z,77.78
2019-03-01T17:01:32.327Z,77.63
2019-03-01T17:04:02.855Z,77.25
2019-03-01T17:06:33.620Z,77.83
2019-03-01T17:09:05.425Z,77.24
2019-03-01T17:11:37.619Z,77.25
2019-03-01T17:14:08.086Z,77.18
2019-03-01T17:16:38.972Z,76.71
2019-03-01T17:19:09.920Z,76.06
2019-03-01T17:21:40.365Z,77.49
2019-03-01T17:24:12.189Z,78.17
2019-03-01T17:26:44.338Z,78.53
2019-03-01T17:29:15.217Z,78.92
2019-03-01T17:31:45.670Z,79.12
2019-03-01T17:34:16.105Z,79.15
2019-03-01T17:36:46.587Z,78.17
2019-03-01T17:39:20.082Z,78.42
2019-03-01T17:41:49.260Z,77.13
2019-03-01T17:44:19.706Z,78.49
2019-03-01T17:46:50.181Z,77.45
2019-03-01T17:49:20.626Z,77.56
2019-03-01T17:51:53.383Z,77.68
2019-03-01T17:54:23.543Z,78.10
2019-03-01T17:56:56.992Z,78.60
2019-03-01T17:59:26.335Z,78.79
2019-03-01T18:01:56.807Z,79.16
2019-03-01T18:04:29.143Z,78.77
2019-03-01T18:07:01.845Z,79.09
2019-03-01T18:09:32.295Z,78.94
2019-03-01T18:12:03.531Z,79.03
2019-03-01T18:14:36.939Z,78.35
2019-03-01T18:17:06.546Z,78.62
2019-03-01T18:19:37.384Z,78.78
2019-03-01T18:22:08.224Z,77.73
2019-03-01T18:24:39.506Z,78.23
2019-03-01T18:27:12.215Z,77.42
2019-03-01T18:29:43.390Z,76.88
2019-03-01T18:32:14.306Z,77.39
2019-03-01T18:34:45.451Z,76.91
2019-03-01T18:37:19.320Z,76.88
2019-03-01T18:39:49.213Z,77.33
2019-03-01T18:42:21.902Z,77.67
2019-03-01T18:44:52.376Z,78.87
2019-03-01T18:47:23.305Z,78.79
2019-03-01T18:49:55.259Z,78.26
2019-03-01T18:52:26.729Z,78.59
2019-03-01T18:54:57.969Z,78.93
2019-03-01T18:57:29.488Z,79.67
2019-03-01T19:00:01.114Z,80.21
2019-03-01T19:02:32.224Z,80.46
2019-03-01T19:05:04.503Z,80.07
2019-03-01T19:07:34.865Z,79.43
2019-03-01T19:10:06.719Z,79.67
2019-03-01T19:12:37.574Z,79.80
2019-03-01T19:15:12.185Z,79.53
2019-03-01T19:17:41.759Z,79.20
2019-03-01T19:20:14.760Z,78.96
2019-03-01T19:22:45.229Z,78.82
2019-03-01T19:25:17.162Z,79.10
2019-03-01T19:27:50.813Z,78.92
2019-03-01T19:30:21.099Z,78.82
2019-03-01T19:32:52.426Z,78.73
2019-03-01T19:35:28.345Z,78.82
2019-03-01T19:37:55.032Z,78.70
2019-03-01T19:40:25.521Z,79.03
2019-03-01T19:42:57.371Z,78.82
2019-03-01T19:45:28.097Z,78.71
2019-03-01T19:48:03.240Z,78.88
2019-03-01T19:50:31.295Z,78.96
2019-03-01T19:53:02.031Z,79.16
2019-03-01T19:55:33.273Z,79.49
2019-03-01T19:58:03.726Z,80.14
2019-03-01T20:00:34.242Z,79.71
2019-03-01T20:03:06.586Z,79.81
2019-03-01T20:05:37.250Z,80.11
2019-03-01T20:08:07.849Z,79.48
2019-03-01T20:10:40.907Z,79.76
2019-03-01T20:13:13.036Z,79.61
2019-03-01T20:15:46.159Z,79.35
2019-03-01T20:18:18.909Z,79.56
2019-03-01T20:20:49.388Z,79.41
2019-03-01T20:23:19.885Z,79.64
2019-03-01T20:25:50.841Z,79.89
2019-03-01T20:28:22.182Z,79.72
2019-03-01T20:30:54.023Z,79.66
2019-03-01T20:33:27.148Z,79.48
2019-03-01T20:35:56.976Z,79.69
2019-03-01T20:38:27.425Z,79.43
2019-03-01T20:40:59.881Z,79.65
2019-03-01T20:43:30.373Z,79.80
2019-03-01T20:46:03.829Z,79.82
2019-03-01T20:48:34.287Z,79.67
2019-03-01T20:51:06.273Z,79.67
2019-03-01T20:53:37.007Z,79.51
2019-03-01T20:56:09.863Z,78.95
2019-03-01T20:58:41.831Z,79.13
2019-03-01T21:01:14.372Z,79.19
2019-03-01T21:03:45.417Z,79.20
2019-03-01T21:06:15.911Z,79.07
2019-03-01T21:08:46.374Z,78.54
2019-03-01T21:11:17.180Z,78.63
2019-03-01T21:13:49.104Z,79.28
2019-03-01T21:16:20.180Z,78.97
2019-03-01T21:18:50.974Z,79.06
2019-03-01T21:21:21.905Z,78.74
2019-03-01T21:23:52.445Z,78.58
2019-03-01T21:26:24.139Z,78.75
2019-03-01T21:28:54.977Z,79.28
2019-03-01T21:31:25.824Z,78.75
2019-03-01T21:33:59.194Z,79.48
2019-03-01T21:36:28.824Z,79.27
2019-03-01T21:38:59.309Z,79.55
2019-03-01T21:41:30.156Z,79.75
2019-03-01T21:44:01.772Z,79.97
2019-03-01T21:46:34.112Z,79.90
2019-03-01T21:49:04.373Z,79.56
2019-03-01T21:51:35.706Z,79.91
2019-03-01T21:54:06.454Z,80.12
2019-03-01T21:56:39.572Z,80.31
2019-03-01T21:59:09.518Z,80.47
2019-03-01T22:01:41.458Z,80.31
2019-03-01T22:04:12.896Z,80.50
2019-03-01T22:06:43.641Z,80.33
2019-03-01T22:09:14.973Z,80.47
2019-03-01T22:11:45.824Z,80.97
2019-03-01T22:14:18.324Z,80.45
2019-03-01T22:16:48.762Z,80.29
2019-03-01T22:19:19.192Z,80.19
2019-03-01T22:21:49.678Z,80.41
2019-03-01T22:24:20.113Z,80.59
2019-03-01T22:26:50.911Z,80.83
2019-03-01T22:29:21.381Z,80.70
2019-03-01T22:31:51.817Z,80.86
2019-03-01T22:34:22.284Z,80.67
2019-03-01T22:36:53.835Z,80.53
2019-03-01T22:39:24.668Z,80.63
2019-03-01T22:41:55.163Z,80.54
2019-03-01T22:44:25.626Z,80.56
2019-03-01T22:47:00.754Z,80.17
2019-03-01T22:49:31.820Z,80.06
2019-03-01T22:52:03.394Z,80.50
2019-03-01T22:54:33.822Z,79.94
2019-03-01T22:57:04.282Z,79.78
2019-03-01T22:59:34.765Z,79.89
2019-03-01T23:02:08.209Z,80.06
2019-03-01T23:04:40.237Z,79.34
2019-03-01T23:07:10.679Z,79.58
2019-03-01T23:09:42.671Z,78.98
2019-03-01T23:12:14.803Z,78.91
2019-03-01T23:14:45.834Z,78.69
2019-03-01T23:17:16.332Z,78.76
2019-03-01T23:19:47.770Z,78.64
2019-03-01T23:22:18.936Z,78.80
2019-03-01T23:24:49.571Z,78.18
2019-03-01T23:27:20.068Z,78.51
2019-03-01T23:29:50.929Z,78.26
2019-03-01T23:32:23.022Z,78.22
2019-03-01T23:34:53.523Z,77.85
2019-03-01T23:37:23.964Z,77.71
2019-03-01T23:39:57.101Z,77.72
2019-03-01T23:42:26.617Z,77.35
2019-03-01T23:44:57.063Z,77.59
2019-03-01T23:47:27.501Z,77.45
2019-03-01T23:49:59.387Z,77.78
2019-03-01T23:52:30.144Z,78.26
2019-03-01T23:55:00.589Z,77.44
2019-03-01T23:57:31.363Z,77.55
